createdAt,value
2019-03-04T00:01:29.119Z,5.07
2019-03-04T00:04:18.926Z,5.37
2019-03-04T00:07:08.729Z,5.93
2019-03-04T00:09:58.543Z,4.80
2019-03-04T00:12:48.350Z,4.73
2019-03-04T00:15:38.129Z,5.00
2019-03-04T00:18:27.968Z,5.23
2019-03-04T00:21:18.055Z,5.43
2019-03-04T00:24:07.898Z,4.37
2019-03-04T00:26:57.700Z,4.23
2019-03-04T00:29:47.506Z,4.13
2019-03-04T00:32:37.293Z,4.20
2019-03-04T00:35:07.666Z,4.97
2019-03-04T00:37:57.434Z,5.10
2019-03-04T00:40:47.217Z,4.70
2019-03-04T00:43:37.030Z,5.13
2019-03-04T00:46:26.837Z,4.53
2019-03-04T00:49:16.631Z,5.40
2019-03-04T00:52:06.434Z,5.00
2019-03-04T00:54:56.243Z,5.30
2019-03-04T00:57:46.021Z,5.63
2019-03-04T01:00:35.808Z,3.73
2019-03-04T01:03:25.607Z,5.53
2019-03-04T01:06:15.401Z,6.20
2019-03-04T01:12:07.922Z,5.63
2019-03-04T01:14:57.699Z,5.87
2019-03-04T01:17:47.484Z,5.43
2019-03-04T01:20:37.316Z,5.77
2019-03-04T01:23:27.124Z,6.30
2019-03-04T01:26:16.889Z,6.80
2019-03-04T01:29:06.666Z,6.40
2019-03-04T01:31:56.533Z,5.80
2019-03-04T01:34:46.398Z,5.43
2019-03-04T01:37:36.173Z,5.37
2019-03-04T01:40:25.942Z,7.13
2019-03-04T01:43:15.774Z,7.80
2019-03-04T01:46:05.580Z,9.43
2019-03-04T01:48:55.405Z,8.40
2019-03-04T01:51:45.222Z,6.30
2019-03-04T01:54:35.077Z,6.13
2019-03-04T01:57:24.908Z,5.73
2019-03-04T02:00:19.246Z,7.40
2019-03-04T02:03:09.072Z,6.67
2019-03-04T02:05:58.896Z,6.20
2019-03-04T02:08:29.315Z,6.97
2019-03-04T02:11:19.088Z,6.67
2019-03-04T02:17:16.074Z,6.40
2019-03-04T02:20:07.427Z,6.30
2019-03-04T02:22:38.176Z,5.97
2019-03-04T02:26:07.064Z,5.50
2019-03-04T02:28:57.178Z,5.83
2019-03-04T02:31:46.951Z,5.10
2019-03-04T02:34:36.734Z,4.90
2019-03-04T02:37:26.544Z,5.30
2019-03-04T02:40:16.327Z,4.40
2019-03-04T02:43:06.161Z,4.40
2019-03-04T02:45:55.976Z,4.47
2019-03-04T02:48:45.781Z,4.47
2019-03-04T02:51:35.570Z,4.40
2019-03-04T02:54:25.344Z,4.90
2019-03-04T02:57:01.744Z,3.90
2019-03-04T02:59:51.543Z,3.90
2019-03-04T03:02:41.289Z,4.10
2019-03-04T03:08:35.318Z,3.97
2019-03-04T03:11:25.153Z,3.67
2019-03-04T03:14:14.961Z,4.10
2019-03-04T03:17:04.790Z,4.30
2019-03-04T03:19:41.174Z,3.40
2019-03-04T03:22:30.991Z,3.60
2019-03-04T03:25:07.739Z,3.70
2019-03-04T03:27:44.143Z,4.20
2019-03-04T03:30:14.558Z,4.37
2019-03-04T03:33:04.318Z,3.40
2019-03-04T03:35:54.137Z,3.43
2019-03-04T03:38:24.586Z,3.60
2019-03-04T03:41:14.450Z,3.60
2019-03-04T03:44:04.256Z,3.73
2019-03-04T03:46:54.056Z,3.67
2019-03-04T03:49:30.708Z,5.40
2019-03-04T03:52:20.498Z,7.57
2019-03-04T03:55:10.523Z,7.77
2019-03-04T03:57:40.895Z,6.83
2019-03-04T04:00:30.702Z,5.00
2019-03-04T04:03:20.568Z,3.93
2019-03-04T04:05:50.969Z,5.27
2019-03-04T04:08:40.763Z,5.00
2019-03-04T04:11:30.525Z,5.80
2019-03-04T04:14:20.305Z,4.40
2019-03-04T04:17:10.103Z,4.60
2019-03-04T04:19:59.867Z,5.50
2019-03-04T04:22:49.712Z,4.70
2019-03-04T04:25:39.477Z,3.57
2019-03-04T04:31:12.827Z,3.97
2019-03-04T04:34:02.652Z,4.13
2019-03-04T04:36:52.430Z,4.10
2019-03-04T04:39:42.224Z,3.70
2019-03-04T04:42:31.988Z,3.53
2019-03-04T04:45:21.782Z,4.43
2019-03-04T04:48:11.590Z,4.03
2019-03-04T04:51:01.420Z,3.23
2019-03-04T04:53:51.166Z,4.30
2019-03-04T04:56:40.928Z,3.83
2019-03-04T04:59:31.587Z,3.03
2019-03-04T05:02:21.355Z,3.90
2019-03-04T05:05:11.253Z,4.17
2019-03-04T05:07:41.738Z,5.80
2019-03-04T05:10:31.526Z,7.23
2019-03-04T05:13:21.298Z,7.10
2019-03-04T05:16:11.108Z,8.30
2019-03-04T05:18:41.521Z,8.30
2019-03-04T05:21:11.910Z,9.40
2019-03-04T05:24:01.665Z,8.00
2019-03-04T05:26:51.468Z,8.67
2019-03-04T05:29:41.279Z,7.80
2019-03-04T05:32:31.107Z,8.17
2019-03-04T05:35:20.892Z,12.60
2019-03-04T05:38:10.688Z,14.07
2019-03-04T05:40:41.101Z,16.00
2019-03-04T05:43:30.959Z,18.40
2019-03-04T05:46:22.853Z,11.53
2019-03-04T05:49:12.695Z,9.60
2019-03-04T05:52:02.597Z,8.63
2019-03-04T05:54:52.438Z,6.80
2019-03-04T05:57:42.244Z,6.60
2019-03-04T06:03:20.468Z,8.17
2019-03-04T06:06:10.424Z,7.03
2019-03-04T06:09:00.215Z,7.63
2019-03-04T06:11:49.992Z,6.20
2019-03-04T06:14:39.791Z,6.67
2019-03-04T06:17:29.574Z,7.53
2019-03-04T06:20:19.739Z,6.77
2019-03-04T06:25:35.440Z,6.83
2019-03-04T06:28:25.226Z,7.30
2019-03-04T06:31:15.065Z,7.87
2019-03-04T06:34:04.867Z,8.40
2019-03-04T06:36:54.633Z,7.50
2019-03-04T06:39:44.375Z,7.43
2019-03-04T06:42:34.171Z,7.33
2019-03-04T06:45:23.972Z,8.10
2019-03-04T06:48:13.770Z,7.10
2019-03-04T06:51:05.337Z,7.73
2019-03-04T06:54:33.239Z,6.43
2019-03-04T06:57:29.122Z,7.63
2019-03-04T07:00:38.429Z,8.27
2019-03-04T07:03:53.517Z,6.57
2019-03-04T07:06:43.315Z,7.50
2019-03-04T07:09:33.075Z,8.57
2019-03-04T07:12:22.863Z,7.83
2019-03-04T07:15:12.630Z,7.40
2019-03-04T07:18:02.394Z,7.77
2019-03-04T07:20:52.168Z,7.77
2019-03-04T07:23:41.965Z,6.97
2019-03-04T07:26:31.785Z,6.53
2019-03-04T07:29:21.549Z,6.97
2019-03-04T07:32:11.359Z,6.90
2019-03-04T07:34:41.721Z,4.93
2019-03-04T07:37:31.505Z,3.77
2019-03-04T07:40:21.270Z,3.77
2019-03-04T07:43:11.059Z,3.90
2019-03-04T07:45:41.519Z,3.50
2019-03-04T07:48:31.300Z,3.60
2019-03-04T07:51:21.169Z,3.90
2019-03-04T07:54:10.961Z,3.80
2019-03-04T07:56:41.441Z,2.97
2019-03-04T07:59:31.294Z,3.60
2019-03-04T08:02:21.060Z,4.50
2019-03-04T08:05:10.870Z,3.83
2019-03-04T08:08:00.449Z,3.63
2019-03-04T08:11:28.305Z,3.40
2019-03-04T08:14:18.093Z,2.70
2019-03-04T08:17:07.872Z,3.80
2019-03-04T08:19:57.659Z,3.83
2019-03-04T08:22:28.042Z,3.50
2019-03-04T08:25:00.042Z,3.27
2019-03-04T08:27:49.821Z,3.60
2019-03-04T08:30:39.995Z,3.40
2019-03-04T08:33:11.822Z,3.30
2019-03-04T08:35:42.175Z,3.60
2019-03-04T08:38:31.955Z,2.50
2019-03-04T08:41:21.686Z,2.83
2019-03-04T08:44:11.459Z,3.10
2019-03-04T08:46:41.845Z,3.10
2019-03-04T08:49:44.436Z,3.10
2019-03-04T08:52:15.929Z,3.30
2019-03-04T08:55:06.346Z,3.20
2019-03-04T09:01:04.113Z,3.70
2019-03-04T09:03:53.928Z,3.23
2019-03-04T09:06:43.755Z,3.80
2019-03-04T09:09:34.013Z,4.00
2019-03-04T09:12:23.826Z,3.47
2019-03-04T09:14:54.331Z,3.57
2019-03-04T09:17:44.174Z,2.80
2019-03-04T09:20:33.965Z,3.03
2019-03-04T09:23:23.799Z,3.20
2019-03-04T09:26:13.567Z,3.40
2019-03-04T09:29:03.394Z,3.40
2019-03-04T09:31:53.215Z,3.40
2019-03-04T09:34:24.048Z,3.10
2019-03-04T09:37:13.832Z,3.17
2019-03-04T09:40:03.668Z,3.33
2019-03-04T09:42:53.434Z,2.80
2019-03-04T09:45:43.289Z,3.57
2019-03-04T09:48:33.102Z,3.73
2019-03-04T09:51:24.651Z,3.20
2019-03-04T09:54:14.392Z,3.57
2019-03-04T09:57:04.171Z,3.27
2019-03-04T09:59:53.946Z,3.03
2019-03-04T10:02:46.088Z,3.43
2019-03-04T10:05:58.800Z,3.33
2019-03-04T10:09:26.698Z,3.37
2019-03-04T10:12:54.582Z,3.40
2019-03-04T10:16:18.282Z,4.40
2019-03-04T10:19:38.603Z,3.13
2019-03-04T10:22:47.409Z,3.97
2019-03-04T10:26:02.691Z,3.80
2019-03-04T10:29:30.564Z,4.60
2019-03-04T10:32:54.335Z,4.73
2019-03-04T10:35:53.957Z,6.83
2019-03-04T10:38:46.171Z,8.90
2019-03-04T10:42:14.084Z,8.80
2019-03-04T10:45:41.964Z,10.50
2019-03-04T10:48:31.765Z,8.93
2019-03-04T10:51:21.559Z,9.50
2019-03-04T10:54:11.423Z,8.33
2019-03-04T10:56:42.502Z,9.07
2019-03-04T10:59:26.999Z,7.40
2019-03-04T11:02:16.864Z,7.80
2019-03-04T11:04:47.454Z,9.27
2019-03-04T11:07:37.324Z,9.20
2019-03-04T11:10:27.157Z,9.67
2019-03-04T11:13:16.951Z,8.80
2019-03-04T11:16:06.781Z,8.90
2019-03-04T11:18:56.603Z,9.57
2019-03-04T11:21:46.426Z,10.07
2019-03-04T11:24:36.209Z,10.43
2019-03-04T11:27:26.058Z,8.73
2019-03-04T11:30:16.171Z,8.73
2019-03-04T11:33:06.200Z,8.20
2019-03-04T11:35:56.031Z,8.80
2019-03-04T11:38:48.072Z,9.33
2019-03-04T11:41:38.791Z,7.97
2019-03-04T11:44:28.654Z,8.57
2019-03-04T11:50:16.944Z,8.20
2019-03-04T11:53:06.831Z,9.40
2019-03-04T11:55:56.621Z,8.00
2019-03-04T11:58:46.465Z,9.40
2019-03-04T12:01:55.179Z,8.50
2019-03-04T12:04:45.104Z,8.70
2019-03-04T12:07:35.024Z,8.10
2019-03-04T12:10:07.737Z,7.87
2019-03-04T12:12:38.993Z,8.17
2019-03-04T12:15:28.920Z,8.20
2019-03-04T12:18:18.761Z,9.33
2019-03-04T12:21:08.622Z,10.30
2019-03-04T12:23:58.446Z,7.97
2019-03-04T12:26:48.334Z,9.37
2019-03-04T12:29:38.145Z,8.50
2019-03-04T12:32:46.887Z,9.20
2019-03-04T12:35:36.718Z,8.43
2019-03-04T12:38:26.536Z,9.50
2019-03-04T12:40:57.040Z,9.83
2019-03-04T12:43:46.991Z,8.60
2019-03-04T12:46:36.832Z,9.33
2019-03-04T12:49:26.660Z,9.80
2019-03-04T12:52:16.596Z,12.07
2019-03-04T12:55:08.169Z,10.80
2019-03-04T12:57:39.008Z,9.00
2019-03-04T13:00:29.003Z,10.30
2019-03-04T13:03:38.093Z,9.07
2019-03-04T13:06:27.979Z,8.50
2019-03-04T13:09:17.757Z,8.97
2019-03-04T13:12:07.700Z,10.17
2019-03-04T13:14:57.509Z,10.60
2019-03-04T13:20:33.088Z,9.20
2019-03-04T13:23:22.937Z,8.27
2019-03-04T13:26:12.787Z,7.13
2019-03-04T13:29:02.593Z,7.17
2019-03-04T13:31:45.460Z,7.40
2019-03-04T13:34:35.291Z,6.50
2019-03-04T13:37:25.107Z,6.13
2019-03-04T13:43:18.148Z,5.57
2019-03-04T13:46:07.942Z,5.80
2019-03-04T13:48:57.748Z,6.43
2019-03-04T13:51:47.544Z,6.10
2019-03-04T13:54:57.853Z,6.30
2019-03-04T13:57:30.206Z,7.00
2019-03-04T14:00:20.512Z,6.93
2019-03-04T14:03:10.563Z,6.50
2019-03-04T14:06:00.622Z,7.57
2019-03-04T14:08:50.421Z,8.00
2019-03-04T14:11:40.253Z,8.60
2019-03-04T14:14:49.082Z,9.60
2019-03-04T14:17:38.908Z,9.03
2019-03-04T14:20:10.141Z,9.67
2019-03-04T14:23:02.326Z,9.30
2019-03-04T14:25:52.327Z,9.97
2019-03-04T14:28:42.166Z,10.53
2019-03-04T14:31:32.008Z,12.20
2019-03-04T14:34:21.850Z,10.90
2019-03-04T14:37:11.657Z,11.70
2019-03-04T14:39:42.171Z,12.30
2019-03-04T14:42:31.996Z,11.97
2019-03-04T14:45:21.885Z,12.33
2019-03-04T14:48:11.662Z,11.80
2019-03-04T14:50:42.213Z,11.63
2019-03-04T14:53:32.031Z,12.33
2019-03-04T14:56:22.578Z,12.63
2019-03-04T14:59:14.971Z,13.97
2019-03-04T15:01:57.434Z,13.40
2019-03-04T15:04:28.039Z,12.57
2019-03-04T15:07:30.451Z,12.80
2019-03-04T15:10:03.781Z,11.70
2019-03-04T15:12:53.654Z,11.73
2019-03-04T15:15:43.532Z,11.60
2019-03-04T15:18:14.184Z,11.37
2019-03-04T15:21:04.890Z,10.73
2019-03-04T15:23:54.737Z,11.10
2019-03-04T15:26:44.609Z,9.67
2019-03-04T15:29:34.458Z,9.80
2019-03-04T15:32:24.309Z,7.30
2019-03-04T15:34:54.824Z,6.80
2019-03-04T15:37:44.678Z,5.90
2019-03-04T15:40:34.570Z,2.73
2019-03-04T15:43:24.774Z,1.83
2019-03-04T15:46:14.781Z,2.13
2019-03-04T15:49:04.649Z,1.87
2019-03-04T15:51:54.548Z,2.10
2019-03-04T15:54:24.962Z,2.27
2019-03-04T15:57:14.798Z,3.50
2019-03-04T16:00:05.509Z,3.20
2019-03-04T16:02:55.419Z,3.30
2019-03-04T16:05:45.419Z,3.47
2019-03-04T16:08:35.394Z,2.80
2019-03-04T16:11:25.229Z,2.60
2019-03-04T16:13:56.285Z,2.60
2019-03-04T16:16:47.314Z,2.70
2019-03-04T16:19:37.266Z,2.60
2019-03-04T16:22:27.079Z,2.40
2019-03-04T16:25:17.148Z,2.30
2019-03-04T16:28:10.664Z,2.07
2019-03-04T16:30:41.415Z,2.00
2019-03-04T16:33:31.215Z,1.60
2019-03-04T16:36:21.044Z,1.80
2019-03-04T16:39:10.862Z,1.67
2019-03-04T16:42:01.110Z,1.40
2019-03-04T16:44:50.928Z,1.60
2019-03-04T16:47:41.281Z,1.30
2019-03-04T16:50:31.159Z,1.50
2019-03-04T16:53:21.828Z,1.30
2019-03-04T16:56:11.697Z,1.00
2019-03-04T16:58:42.175Z,1.43
2019-03-04T17:01:32.503Z,1.43
2019-03-04T17:04:22.388Z,1.30
2019-03-04T17:07:12.164Z,1.20
2019-03-04T17:09:42.669Z,1.43
2019-03-04T17:12:32.488Z,1.47
2019-03-04T17:18:25.460Z,1.30
2019-03-04T17:21:15.322Z,0.90
2019-03-04T17:24:05.302Z,1.10
2019-03-04T17:26:55.311Z,1.50
2019-03-04T17:29:45.164Z,0.73
2019-03-04T17:32:35.145Z,1.30
2019-03-04T17:35:25.070Z,1.20
2019-03-04T17:38:14.969Z,1.07
2019-03-04T17:40:45.359Z,1.10
2019-03-04T17:43:35.214Z,1.00
2019-03-04T17:46:25.064Z,0.87
2019-03-04T17:49:14.948Z,1.07
2019-03-04T17:54:51.448Z,1.47
2019-03-04T17:57:41.258Z,0.97
2019-03-04T18:00:31.315Z,1.10
2019-03-04T18:03:21.107Z,1.00
2019-03-04T18:05:51.851Z,0.73
2019-03-04T18:08:42.690Z,0.90
2019-03-04T18:11:32.547Z,1.17
2019-03-04T18:14:22.368Z,0.83
2019-03-04T18:17:12.200Z,1.00
2019-03-04T18:19:42.697Z,1.00
2019-03-04T18:26:01.052Z,0.87
2019-03-04T18:29:29.015Z,1.50
2019-03-04T18:32:45.654Z,1.47
2019-03-04T18:35:45.061Z,1.30
2019-03-04T18:39:12.935Z,1.10
2019-03-04T18:42:40.848Z,1.07
2019-03-04T18:46:08.813Z,0.77
2019-03-04T18:49:06.981Z,1.00
2019-03-04T18:51:56.991Z,1.20
2019-03-04T18:54:46.919Z,1.27
2019-03-04T18:57:36.878Z,1.20
2019-03-04T19:00:27.079Z,1.30
2019-03-04T19:03:16.961Z,0.97
2019-03-04T19:06:06.850Z,0.97
2019-03-04T19:08:56.735Z,1.40
2019-03-04T19:11:46.725Z,1.03
2019-03-04T19:14:36.644Z,1.20
2019-03-04T19:17:07.889Z,1.10
2019-03-04T19:19:58.686Z,0.87
2019-03-04T19:22:48.582Z,1.10
2019-03-04T19:25:38.896Z,1.00
2019-03-04T19:28:28.732Z,1.23
2019-03-04T19:31:18.517Z,1.23
2019-03-04T19:33:49.072Z,1.10
2019-03-04T19:36:38.910Z,0.90
2019-03-04T19:39:29.291Z,1.27
2019-03-04T19:42:19.082Z,1.23
2019-03-04T19:45:11.476Z,1.03
2019-03-04T19:47:42.390Z,1.40
2019-03-04T19:50:13.092Z,1.03
2019-03-04T19:53:05.789Z,1.33
2019-03-04T19:55:55.674Z,1.20
2019-03-04T19:58:45.503Z,1.33
2019-03-04T20:01:35.387Z,1.60
2019-03-04T20:04:25.239Z,1.40
2019-03-04T20:07:27.931Z,2.50
2019-03-04T20:10:01.230Z,2.10
2019-03-04T20:12:51.260Z,1.43
2019-03-04T20:15:41.374Z,1.47
2019-03-04T20:18:31.215Z,1.47
2019-03-04T20:21:21.032Z,1.30
2019-03-04T20:24:10.916Z,1.13
2019-03-04T20:27:00.745Z,1.13
2019-03-04T20:29:31.293Z,1.10
2019-03-04T20:32:21.154Z,1.50
2019-03-04T20:35:11.669Z,1.47
2019-03-04T20:37:44.786Z,0.87
2019-03-04T20:40:34.630Z,1.40
2019-03-04T20:43:24.423Z,1.17
2019-03-04T20:46:14.435Z,0.93
2019-03-04T20:49:04.245Z,1.33
2019-03-04T20:51:54.129Z,1.37
2019-03-04T20:54:43.997Z,1.63
2019-03-04T20:57:33.877Z,1.20
2019-03-04T21:00:04.793Z,1.40
2019-03-04T21:02:54.690Z,1.10
2019-03-04T21:05:46.837Z,1.23
2019-03-04T21:08:17.407Z,1.20
2019-03-04T21:11:07.462Z,1.23
2019-03-04T21:13:57.434Z,1.37
2019-03-04T21:16:47.706Z,1.73
2019-03-04T21:19:39.688Z,1.10
2019-03-04T21:22:29.554Z,1.10
2019-03-04T21:25:39.579Z,1.30
2019-03-04T21:28:55.952Z,1.03
2019-03-04T21:32:07.488Z,1.10
2019-03-04T21:35:35.424Z,1.03
2019-03-04T21:38:29.227Z,1.40
2019-03-04T21:41:57.872Z,1.40
2019-03-04T21:45:07.345Z,1.20
2019-03-04T21:48:02.056Z,1.27
2019-03-04T21:51:10.889Z,1.47
2019-03-04T21:54:13.629Z,1.40
2019-03-04T21:57:02.526Z,1.07
2019-03-04T21:59:52.432Z,1.10
2019-03-04T22:03:03.314Z,1.20
2019-03-04T22:05:53.213Z,1.10
2019-03-04T22:08:43.147Z,1.20
2019-03-04T22:11:33.065Z,1.50
2019-03-04T22:14:03.861Z,1.10
2019-03-04T22:16:34.523Z,1.10
2019-03-04T22:19:24.337Z,1.23
2019-03-04T22:22:14.611Z,1.73
2019-03-04T22:25:04.560Z,1.00
2019-03-04T22:27:54.389Z,1.10
2019-03-04T22:30:44.213Z,1.10
2019-03-04T22:33:34.073Z,0.90
2019-03-04T22:36:23.961Z,1.10
2019-03-04T22:39:13.922Z,0.93
2019-03-04T22:42:03.790Z,1.13
2019-03-04T22:44:53.604Z,1.00
2019-03-04T22:47:43.581Z,0.90
2019-03-04T22:50:33.494Z,1.00
2019-03-04T22:53:03.988Z,0.93
2019-03-04T22:55:53.821Z,1.10
2019-03-04T22:58:43.641Z,0.83
2019-03-04T23:05:01.755Z,1.00
2019-03-04T23:07:54.316Z,0.90
2019-03-04T23:10:45.294Z,0.83
2019-03-04T23:14:13.161Z,0.73
2019-03-04T23:16:43.585Z,0.70
2019-03-04T23:19:33.369Z,0.80
2019-03-04T23:22:22.880Z,0.83
2019-03-04T23:25:13.152Z,0.73
2019-03-04T23:27:43.574Z,0.90
2019-03-04T23:30:33.356Z,0.90
2019-03-04T23:33:23.390Z,0.70
2019-03-04T23:36:13.347Z,0.80
2019-03-04T23:41:46.671Z,0.90
2019-03-04T23:44:36.518Z,0.70
2019-03-04T23:47:06.887Z,0.90
2019-03-04T23:50:34.865Z,1.00
2019-03-04T23:53:24.672Z,0.80
2019-03-04T23:55:55.216Z,0.87
2019-03-04T23:58:44.981Z,0.73
